Time;durP1;ratioP1;P1;durP2;ratioP2;P2;SDS_P1;SDS_P2;PMS_P1;PMS_P2;Temp;Humidity;BMP_temperature;BMP_pressure;BME280_temperature;BME280_humidity;BME280_pressure;Samples;Min_cycle;Max_cycle;Signal;HPM_P1;HPM_P2
2022/12/05 00:02:23;;;;;;;20.70;11.43;;;2.90;99.90;;;;;;4993183;28;20218;-87
2022/12/05 00:04:49;;;;;;;23.43;10.87;;;2.90;99.90;;;;;;4993439;28;20180;-87
2022/12/05 00:07:15;;;;;;;21.03;10.93;;;2.90;99.90;;;;;;5003614;28;20209;-87
2022/12/05 00:09:41;;;;;;;21.07;11.40;;;2.90;99.90;;;;;;5014225;28;20218;-87
2022/12/05 00:12:06;;;;;;;20.80;10.93;;;2.90;99.90;;;;;;4996246;28;20203;-87
2022/12/05 00:14:32;;;;;;;18.50;10.73;;;2.90;99.90;;;;;;5012874;28;20183;-87
2022/12/05 00:16:58;;;;;;;21.37;11.20;;;2.90;99.90;;;;;;5012769;28;20214;-87
2022/12/05 00:19:24;;;;;;;22.30;11.03;;;2.90;99.90;;;;;;5013251;28;20191;-87
2022/12/05 00:21:50;;;;;;;19.10;11.40;;;2.90;99.90;;;;;;5012996;28;20214;-87
2022/12/05 00:24:16;;;;;;;18.70;11.37;;;2.90;99.90;;;;;;5012770;28;20198;-87
2022/12/05 00:26:43;;;;;;;17.83;10.43;;;3.00;99.90;;;;;;5012101;28;20199;-88
2022/12/05 00:29:09;;;;;;;22.13;13.33;;;3.00;99.90;;;;;;4996138;28;20179;-87
2022/12/05 00:31:35;;;;;;;21.47;12.70;;;2.90;99.90;;;;;;5013054;28;20253;-87
2022/12/05 00:34:02;;;;;;;22.43;12.13;;;3.00;99.90;;;;;;5012651;28;20265;-87
2022/12/05 00:36:30;;;;;;;24.67;12.53;;;3.00;99.90;;;;;;4996421;28;20285;-87
2022/12/05 00:38:59;;;;;;;22.07;11.97;;;2.90;99.90;;;;;;4996282;28;20175;-87
2022/12/05 00:41:26;;;;;;;22.83;11.60;;;2.90;99.90;;;;;;5012704;28;20171;-87
2022/12/05 00:43:54;;;;;;;24.50;12.43;;;2.90;99.90;;;;;;5012884;28;20190;-87
2022/12/05 00:46:25;;;;;;;21.83;11.77;;;2.90;99.90;;;;;;4996126;28;20209;-87
2022/12/05 00:48:55;;;;;;;22.70;11.80;;;2.90;99.90;;;;;;5011221;28;20175;-87
2022/12/05 00:51:35;;;;;;;25.10;12.23;;;2.90;99.90;;;;;;5012720;28;20207;-87
2022/12/05 00:54:03;;;;;;;26.33;13.13;;;2.90;99.90;;;;;;4996129;28;20191;-87
2022/12/05 00:56:30;;;;;;;24.73;13.10;;;2.90;99.90;;;;;;4996101;28;20210;-87
2022/12/05 00:58:57;;;;;;;26.97;13.60;;;2.90;99.90;;;;;;5013537;28;20182;-87
2022/12/05 01:01:24;;;;;;;25.67;12.97;;;2.90;99.90;;;;;;4996357;28;20256;-87
2022/12/05 01:03:54;;;;;;;22.37;12.20;;;2.90;99.90;;;;;;4996066;28;20215;-87
2022/12/05 01:06:21;;;;;;;27.03;12.97;;;2.90;99.90;;;;;;4995921;28;20253;-87
2022/12/05 01:08:47;;;;;;;21.90;11.87;;;2.80;99.90;;;;;;5012261;28;20179;-87
2022/12/05 01:11:16;;;;;;;24.37;13.03;;;2.80;99.90;;;;;;4996240;28;20179;-87
2022/12/05 01:13:43;;;;;;;21.53;12.67;;;2.80;99.90;;;;;;5011317;28;20179;-87
2022/12/05 01:16:15;;;;;;;22.67;12.33;;;2.80;99.90;;;;;;4995993;28;20253;-87
2022/12/05 01:18:41;;;;;;;23.00;11.87;;;2.80;99.90;;;;;;5012250;28;20180;-87
2022/12/05 01:21:07;;;;;;;25.63;12.27;;;2.80;99.90;;;;;;5012472;28;20182;-87
2022/12/05 01:23:33;;;;;;;21.20;12.13;;;2.90;99.90;;;;;;4995665;28;20310;-87
2022/12/05 01:25:59;;;;;;;23.53;11.93;;;2.90;99.90;;;;;;5012241;28;20199;-87
2022/12/05 01:28:25;;;;;;;22.87;12.10;;;2.80;99.90;;;;;;5011934;28;20237;-87
2022/12/05 01:30:51;;;;;;;24.10;12.00;;;2.90;99.90;;;;;;5012090;28;20179;-87
2022/12/05 01:33:17;;;;;;;19.13;11.43;;;2.80;99.90;;;;;;5012170;28;20184;-87
2022/12/05 01:35:43;;;;;;;22.03;11.23;;;2.80;99.90;;;;;;5011971;28;20179;-87
2022/12/05 01:38:11;;;;;;;23.23;12.33;;;2.80;99.90;;;;;;4995733;28;20279;-87
2022/12/05 01:40:37;;;;;;;19.67;10.90;;;2.90;99.90;;;;;;4996056;28;20187;-87
2022/12/05 01:43:10;;;;;;;19.67;10.93;;;2.90;99.90;;;;;;4995556;28;20303;-87
2022/12/05 01:45:39;;;;;;;21.90;11.50;;;2.90;99.90;;;;;;4995773;28;20183;-87
2022/12/05 01:48:15;;;;;;;22.60;11.97;;;2.90;99.90;;;;;;5011748;28;20183;-87
2022/12/05 01:50:41;;;;;;;19.97;11.13;;;2.90;99.90;;;;;;4995855;28;20225;-87
2022/12/05 01:53:07;;;;;;;21.50;11.27;;;2.90;99.90;;;;;;4995355;28;20210;-87
2022/12/05 01:55:35;;;;;;;19.23;11.27;;;2.90;99.90;;;;;;5010963;28;20186;-87
2022/12/05 01:58:02;;;;;;;21.80;11.37;;;2.90;99.90;;;;;;4995386;28;20229;-87
2022/12/05 02:00:28;;;;;;;22.00;11.70;;;2.90;99.90;;;;;;4995874;28;20199;-87
2022/12/05 02:03:00;;;;;;;24.70;13.07;;;2.90;99.90;;;;;;5011765;28;20211;-87
2022/12/05 02:05:29;;;;;;;21.13;11.23;;;2.90;99.90;;;;;;4995453;28;20278;-87
2022/12/05 02:07:57;;;;;;;21.93;10.93;;;2.90;99.90;;;;;;4995454;28;20186;-87
2022/12/05 02:10:23;;;;;;;20.63;11.53;;;2.90;99.90;;;;;;4995704;28;20180;-87
2022/12/05 02:12:50;;;;;;;23.07;11.63;;;2.90;99.90;;;;;;5011668;28;20180;-87
2022/12/05 02:15:44;;;;;;;21.40;11.73;;;2.90;99.90;;;;;;4995346;28;20274;-87
2022/12/05 02:18:44;;;;;;;22.40;11.93;;;2.90;99.90;;;;;;4995456;28;20179;-87
2022/12/05 02:21:53;;;;;;;22.10;12.67;;;3.00;99.90;;;;;;4977078;28;20187;-87
2022/12/05 02:24:28;;;;;;;21.97;11.97;;;3.00;99.90;;;;;;4997361;28;20180;-87
2022/12/05 02:27:32;;;;;;;24.27;12.60;;;3.00;99.90;;;;;;4998999;28;20222;-87
2022/12/05 02:30:05;;;;;;;22.43;10.87;;;3.00;99.90;;;;;;5031567;28;20179;-87
2022/12/05 02:32:37;;;;;;;22.30;11.70;;;3.00;99.90;;;;;;4993587;28;20184;-87
2022/12/05 02:35:23;;;;;;;22.97;10.80;;;3.00;99.90;;;;;;5011657;28;20176;-87
2022/12/05 02:38:00;;;;;;;22.30;11.17;;;3.00;99.90;;;;;;4994749;28;20212;-87
2022/12/05 02:40:30;;;;;;;21.23;11.50;;;3.00;99.90;;;;;;4979192;28;20186;-87
2022/12/05 02:43:03;;;;;;;24.53;13.00;;;3.00;99.90;;;;;;4979093;28;20214;-87
2022/12/05 02:45:33;;;;;;;21.60;11.53;;;2.90;99.90;;;;;;4981217;28;20200;-87
2022/12/05 02:48:00;;;;;;;23.70;13.17;;;2.80;99.90;;;;;;5013682;28;20266;-87
2022/12/05 02:50:33;;;;;;;24.80;12.23;;;2.80;99.90;;;;;;5014716;28;20230;-87
2022/12/05 02:53:12;;;;;;;26.00;12.13;;;2.70;99.90;;;;;;4998405;28;20274;-87
2022/12/05 02:55:41;;;;;;;21.97;11.90;;;2.70;99.90;;;;;;4998079;28;20179;-87
2022/12/05 02:58:14;;;;;;;20.87;11.37;;;2.70;99.90;;;;;;5014618;28;20179;-87
2022/12/05 03:00:46;;;;;;;21.00;11.40;;;2.80;99.90;;;;;;4998402;28;20515;-87
2022/12/05 03:03:15;;;;;;;16.80;10.83;;;2.80;99.90;;;;;;4998176;28;20213;-87
2022/12/05 03:05:47;;;;;;;20.60;11.00;;;2.80;99.90;;;;;;4998142;28;20183;-87
2022/12/05 03:08:17;;;;;;;21.10;11.33;;;2.80;99.90;;;;;;5014480;28;20175;-87
2022/12/05 03:10:46;;;;;;;21.60;11.50;;;2.80;99.90;;;;;;4998273;28;20189;-87
2022/12/05 03:13:23;;;;;;;25.20;12.17;;;2.90;99.90;;;;;;4998225;28;20274;-87
2022/12/05 03:15:53;;;;;;;20.30;11.40;;;2.90;99.90;;;;;;4978681;28;20203;-87
2022/12/05 03:18:33;;;;;;;21.40;11.37;;;2.90;99.90;;;;;;4995471;28;20169;-87
2022/12/05 03:21:07;;;;;;;20.13;11.23;;;2.90;99.90;;;;;;4994476;28;20179;-87
2022/12/05 03:23:38;;;;;;;18.60;10.57;;;2.90;99.90;;;;;;4994517;28;20220;-87
2022/12/05 03:26:16;;;;;;;20.90;12.23;;;2.90;99.90;;;;;;4997667;28;20270;-87
2022/12/05 03:29:04;;;;;;;20.73;11.87;;;2.90;99.90;;;;;;4979715;28;20175;-87
2022/12/05 03:31:42;;;;;;;20.83;10.70;;;2.90;99.90;;;;;;5014312;28;20176;-87
2022/12/05 03:34:19;;;;;;;19.77;10.60;;;2.90;99.90;;;;;;4997597;28;20246;-87
2022/12/05 03:36:50;;;;;;;21.00;12.00;;;2.90;99.90;;;;;;5013002;28;20198;-87
2022/12/05 03:39:31;;;;;;;19.23;10.63;;;2.90;99.90;;;;;;5013976;28;20163;-87
2022/12/05 03:42:08;;;;;;;19.93;11.00;;;2.90;99.90;;;;;;5014236;28;20203;-87
2022/12/05 03:44:42;;;;;;;18.97;11.03;;;2.90;99.90;;;;;;5013747;28;20168;-87
2022/12/05 03:47:32;;;;;;;17.73;10.13;;;2.90;99.90;;;;;;5013462;28;20209;-86
2022/12/05 03:50:05;;;;;;;19.47;10.20;;;2.90;99.90;;;;;;4997475;28;20179;-87
2022/12/05 03:52:44;;;;;;;21.07;11.30;;;2.90;99.90;;;;;;4997389;28;20179;-87
2022/12/05 03:55:13;;;;;;;21.47;11.03;;;2.90;99.90;;;;;;5013818;28;20187;-87
2022/12/05 03:58:07;;;;;;;19.13;10.90;;;2.90;99.90;;;;;;4997311;28;20241;-87
2022/12/05 04:00:39;;;;;;;20.93;11.17;;;2.90;99.90;;;;;;5013331;28;20183;-87
2022/12/05 04:03:41;;;;;;;17.27;11.00;;;2.90;99.90;;;;;;5013418;28;20211;-87
2022/12/05 04:06:22;;;;;;;18.50;10.37;;;2.80;99.90;;;;;;4977738;28;20291;-87
2022/12/05 04:09:01;;;;;;;18.03;10.20;;;2.80;99.90;;;;;;4993603;28;20171;-87
2022/12/05 04:11:34;;;;;;;17.13;9.87;;;2.80;99.90;;;;;;4977488;28;20180;-87
2022/12/05 04:14:40;;;;;;;17.97;10.23;;;2.70;99.90;;;;;;4993666;28;20169;-87
2022/12/05 04:17:15;;;;;;;20.47;10.23;;;2.70;99.90;;;;;;5009706;28;20202;-87
2022/12/05 04:22:34;;;;;;;17.90;9.87;;;2.70;99.90;;;;;;5012297;28;20214;-87
2022/12/05 04:28:08;;;;;;;15.83;9.73;;;2.60;99.90;;;;;;5012809;28;20199;-87
2022/12/05 04:31:19;;;;;;;18.93;10.10;;;2.60;99.90;;;;;;4996873;28;20175;-87
2022/12/05 04:33:55;;;;;;;18.90;9.50;;;2.60;99.90;;;;;;4975062;28;20199;-88
2022/12/05 04:36:44;;;;;;;16.50;10.47;;;2.60;99.90;;;;;;4993546;28;20222;-87
2022/12/05 04:39:46;;;;;;;15.67;9.40;;;2.60;99.90;;;;;;5004264;28;20277;-88
2022/12/05 04:42:42;;;;;;;18.20;9.90;;;2.60;99.90;;;;;;5012713;28;20230;-88
2022/12/05 04:45:27;;;;;;;18.10;10.10;;;2.60;99.90;;;;;;4983109;28;20214;-88
2022/12/05 04:48:05;;;;;;;20.63;11.57;;;2.60;99.90;;;;;;5012072;28;20668;-88
2022/12/05 04:50:38;;;;;;;19.60;11.30;;;2.60;99.90;;;;;;5012745;28;20179;-88
2022/12/05 04:53:09;;;;;;;19.70;11.37;;;2.60;99.90;;;;;;5011660;28;20641;-88
2022/12/05 04:55:44;;;;;;;19.17;10.37;;;2.60;99.90;;;;;;4983336;28;20176;-88
2022/12/05 04:58:20;;;;;;;21.13;10.50;;;2.60;99.90;;;;;;5017622;28;20194;-88
2022/12/05 05:00:54;;;;;;;18.87;10.07;;;2.50;99.90;;;;;;4996004;28;20778;-88
2022/12/05 05:03:47;;;;;;;19.80;10.67;;;2.50;99.90;;;;;;4996725;28;20290;-88
2022/12/05 05:06:16;;;;;;;17.93;10.53;;;2.50;99.90;;;;;;4990753;28;20286;-88
2022/12/05 05:08:56;;;;;;;23.43;11.10;;;2.50;99.90;;;;;;4996146;28;20179;-88
2022/12/05 05:11:27;;;;;;;21.50;11.80;;;2.50;99.90;;;;;;4996318;28;20183;-88
2022/12/05 05:13:54;;;;;;;20.27;12.23;;;2.50;99.90;;;;;;4995477;28;20175;-88
2022/12/05 05:16:23;;;;;;;19.67;11.60;;;2.50;99.90;;;;;;4994858;28;20206;-88
2022/12/05 05:18:49;;;;;;;19.20;10.70;;;2.50;99.90;;;;;;4995532;28;20183;-88
2022/12/05 05:21:27;;;;;;;23.73;12.57;;;2.50;99.90;;;;;;4995361;28;20194;-87
2022/12/05 05:23:54;;;;;;;24.57;14.33;;;2.50;99.90;;;;;;5012349;28;20230;-88
2022/12/05 05:26:21;;;;;;;22.17;12.53;;;2.50;99.90;;;;;;4992672;28;20298;-88
2022/12/05 05:28:48;;;;;;;23.63;12.17;;;2.50;99.90;;;;;;4992445;28;20263;-88
2022/12/05 05:31:16;;;;;;;23.60;13.00;;;2.50;99.90;;;;;;4993571;28;20183;-88
2022/12/05 05:33:43;;;;;;;22.50;12.33;;;2.50;99.90;;;;;;4995933;28;20186;-87
2022/12/05 05:36:14;;;;;;;19.97;11.00;;;2.50;99.90;;;;;;5011912;28;20203;-88
2022/12/05 05:38:50;;;;;;;20.07;11.00;;;2.60;99.90;;;;;;5011953;28;20179;-88
2022/12/05 05:41:19;;;;;;;20.17;11.40;;;2.50;99.90;;;;;;5012212;28;20175;-88
2022/12/05 05:43:49;;;;;;;19.93;12.37;;;2.60;99.90;;;;;;5011930;28;20211;-88
2022/12/05 05:46:18;;;;;;;17.97;10.70;;;2.60;99.90;;;;;;4995420;28;20198;-88
2022/12/05 05:48:44;;;;;;;19.33;9.73;;;2.60;99.90;;;;;;4995209;28;20187;-88
2022/12/05 05:51:12;;;;;;;18.13;10.20;;;2.50;99.90;;;;;;4995622;28;20210;-88
2022/12/05 05:53:39;;;;;;;18.03;10.73;;;2.50;99.90;;;;;;4995513;28;20223;-88
2022/12/05 05:56:08;;;;;;;15.67;10.07;;;2.50;99.90;;;;;;5011928;28;20207;-88
2022/12/05 05:58:35;;;;;;;20.07;10.53;;;2.50;99.90;;;;;;5012619;28;20265;-88
2022/12/05 06:01:14;;;;;;;15.67;9.63;;;2.50;99.90;;;;;;5015881;28;20195;-88
2022/12/05 06:03:40;;;;;;;18.50;10.13;;;2.50;99.90;;;;;;4999324;28;20210;-88
2022/12/05 06:06:09;;;;;;;18.03;10.50;;;2.50;99.90;;;;;;4999060;28;20195;-88
2022/12/05 06:08:37;;;;;;;19.23;11.03;;;2.50;99.90;;;;;;4999443;28;20183;-88
2022/12/05 06:11:08;;;;;;;16.23;10.13;;;2.50;99.90;;;;;;4999502;28;20266;-88
2022/12/05 06:13:34;;;;;;;20.60;11.33;;;2.50;99.90;;;;;;4999382;28;20171;-88
2022/12/05 06:16:01;;;;;;;20.70;11.20;;;2.50;99.90;;;;;;4999229;28;20199;-88
2022/12/05 06:18:27;;;;;;;19.60;11.57;;;2.50;99.90;;;;;;5015679;28;20187;-88
2022/12/05 06:20:54;;;;;;;18.40;10.37;;;2.50;99.90;;;;;;4999077;28;20182;-88
2022/12/05 06:23:21;;;;;;;19.70;10.80;;;2.50;99.90;;;;;;5015055;28;20222;-87
2022/12/05 06:25:51;;;;;;;20.50;10.47;;;2.60;99.90;;;;;;5015532;28;20187;-88
2022/12/05 06:28:19;;;;;;;19.57;10.80;;;2.60;99.90;;;;;;4998877;28;20172;-87
2022/12/05 06:30:45;;;;;;;19.20;10.37;;;2.60;99.90;;;;;;4999255;28;20251;-88
2022/12/05 06:33:12;;;;;;;18.27;10.97;;;2.60;99.90;;;;;;4998931;28;20183;-88
2022/12/05 06:35:39;;;;;;;18.40;10.10;;;2.60;99.90;;;;;;5015335;28;20266;-88
2022/12/05 06:38:06;;;;;;;15.83;9.23;;;2.60;99.90;;;;;;4998637;28;20179;-88
2022/12/05 06:40:33;;;;;;;19.70;10.90;;;2.60;99.90;;;;;;4998708;28;20190;-88
2022/12/05 06:42:58;;;;;;;19.30;10.33;;;2.50;99.90;;;;;;4998700;28;20218;-88
2022/12/05 06:45:25;;;;;;;15.70;10.37;;;2.50;99.90;;;;;;5014747;28;20214;-88
2022/12/05 06:47:51;;;;;;;20.17;10.40;;;2.40;99.90;;;;;;5014823;28;20203;-88
2022/12/05 06:50:18;;;;;;;18.57;10.67;;;2.40;99.90;;;;;;5014783;28;20206;-88
2022/12/05 06:52:44;;;;;;;17.13;9.83;;;2.40;99.90;;;;;;5014442;28;20245;-88
2022/12/05 06:55:10;;;;;;;19.60;10.23;;;2.40;99.90;;;;;;4998536;28;20191;-88
2022/12/05 06:57:36;;;;;;;20.00;11.33;;;2.50;99.90;;;;;;4998428;28;20306;-88
2022/12/05 07:02:52;;;;;;;20.03;12.10;;;2.50;99.90;;;;;;5014185;28;20215;-89
2022/12/05 07:05:18;;;;;;;22.13;12.33;;;2.60;99.90;;;;;;5014628;28;20589;-88
2022/12/05 07:07:45;;;;;;;23.10;11.17;;;2.50;99.90;;;;;;5014415;28;20223;-89
2022/12/05 07:10:13;;;;;;;22.40;11.70;;;2.50;99.90;;;;;;4985557;28;20188;-88
2022/12/05 07:12:39;;;;;;;20.00;11.60;;;2.50;99.90;;;;;;4992074;28;20192;-88
2022/12/05 07:15:05;;;;;;;15.87;10.67;;;2.50;99.90;;;;;;5014593;28;20197;-88
2022/12/05 07:17:47;;;;;;;20.67;11.80;;;2.60;99.90;;;;;;5014535;28;20199;-89
2022/12/05 07:20:16;;;;;;;20.23;11.67;;;2.60;99.90;;;;;;4997908;28;20179;-88
2022/12/05 07:22:47;;;;;;;16.47;10.57;;;2.60;99.90;;;;;;5013293;28;20203;-88
2022/12/05 07:25:52;;;;;;;18.70;10.90;;;2.70;99.90;;;;;;5011194;28;20270;-88
2022/12/05 07:28:21;;;;;;;21.10;11.33;;;2.70;99.90;;;;;;4994412;28;20225;-88
2022/12/05 07:30:47;;;;;;;19.13;10.73;;;2.70;99.90;;;;;;4996885;28;20184;-88
2022/12/05 07:33:19;;;;;;;16.53;10.53;;;2.80;99.90;;;;;;4997914;28;20179;-88
2022/12/05 07:35:45;;;;;;;17.60;10.83;;;2.80;99.90;;;;;;5013990;28;20195;-88
2022/12/05 07:38:29;;;;;;;17.20;10.60;;;2.80;99.90;;;;;;5015267;28;20759;-88
2022/12/05 07:40:55;;;;;;;17.90;10.43;;;2.90;99.90;;;;;;4998185;28;20232;-88
2022/12/05 07:43:22;;;;;;;16.50;10.43;;;2.90;99.90;;;;;;4997452;28;20227;-89
2022/12/05 07:45:48;;;;;;;18.00;10.53;;;2.90;99.90;;;;;;4997600;28;20206;-88
2022/12/05 07:48:14;;;;;;;17.00;10.27;;;3.00;99.90;;;;;;4997359;28;20183;-88
2022/12/05 07:50:40;;;;;;;20.50;11.77;;;3.00;99.90;;;;;;4997455;28;20237;-88
2022/12/05 07:53:06;;;;;;;16.13;10.20;;;3.00;99.90;;;;;;5014446;28;20205;-88
2022/12/05 07:55:32;;;;;;;17.57;10.73;;;2.90;99.90;;;;;;5013896;28;20241;-89
2022/12/05 07:57:58;;;;;;;18.23;10.43;;;3.00;99.90;;;;;;4989125;28;20207;-88
2022/12/05 08:00:24;;;;;;;17.37;10.37;;;3.00;99.90;;;;;;4978154;28;20267;-88
2022/12/05 08:02:50;;;;;;;16.23;10.17;;;3.00;99.90;;;;;;4977678;28;20214;-88
2022/12/05 08:05:16;;;;;;;15.83;10.40;;;3.00;99.90;;;;;;4978405;28;20176;-88
2022/12/05 08:07:41;;;;;;;16.50;10.33;;;3.00;99.90;;;;;;4977772;28;20228;-88
2022/12/05 08:10:08;;;;;;;16.77;10.10;;;3.10;99.90;;;;;;4994001;28;20191;-88
2022/12/05 08:12:34;;;;;;;16.10;9.87;;;3.10;99.90;;;;;;4977431;28;20547;-88
2022/12/05 08:15:00;;;;;;;17.23;10.20;;;3.10;99.90;;;;;;4993629;28;20187;-88
2022/12/05 08:17:29;;;;;;;19.27;10.53;;;3.10;99.90;;;;;;4978183;28;20200;-88
2022/12/05 08:19:55;;;;;;;20.57;12.43;;;3.10;99.90;;;;;;4977706;28;20211;-88
2022/12/05 08:22:21;;;;;;;22.03;13.33;;;3.20;99.90;;;;;;4976647;28;20207;-89
2022/12/05 08:24:49;;;;;;;18.83;12.00;;;3.20;99.90;;;;;;4977214;28;20706;-88
2022/12/05 08:27:15;;;;;;;21.33;12.40;;;3.30;99.90;;;;;;4978011;28;20254;-88
2022/12/05 08:29:41;;;;;;;20.50;12.50;;;3.20;99.90;;;;;;4977753;28;20180;-88
2022/12/05 08:32:07;;;;;;;22.03;13.77;;;3.30;99.90;;;;;;4977645;28;20231;-88
2022/12/05 08:34:33;;;;;;;20.93;13.43;;;3.30;99.90;;;;;;4977481;28;20184;-88
2022/12/05 08:36:59;;;;;;;18.53;12.37;;;3.40;99.90;;;;;;4977415;28;20210;-88
2022/12/05 08:39:31;;;;;;;18.83;11.40;;;3.40;99.90;;;;;;4982313;28;20187;-89
2022/12/05 08:41:57;;;;;;;17.10;11.10;;;3.50;99.90;;;;;;5012985;28;20179;-88
2022/12/05 08:44:23;;;;;;;16.03;10.57;;;3.50;99.90;;;;;;5013166;28;20186;-87
2022/12/05 08:46:51;;;;;;;16.43;10.67;;;3.50;99.90;;;;;;5005203;28;20221;-87
2022/12/05 08:49:18;;;;;;;14.47;9.07;;;3.60;99.90;;;;;;5005811;28;20188;-87
2022/12/05 08:51:50;;;;;;;15.40;10.23;;;3.50;99.90;;;;;;4998842;28;20187;-87
2022/12/05 08:54:21;;;;;;;16.97;10.53;;;3.50;99.90;;;;;;5026000;28;20207;-87
2022/12/05 08:56:50;;;;;;;13.70;9.27;;;3.50;99.90;;;;;;5004106;28;20203;-87
2022/12/05 08:59:16;;;;;;;18.17;11.53;;;3.60;99.90;;;;;;4998366;28;20172;-87
2022/12/05 09:01:43;;;;;;;19.90;12.90;;;3.60;99.90;;;;;;4993963;28;20171;-87
2022/12/05 09:04:11;;;;;;;19.07;12.00;;;3.70;99.90;;;;;;5010076;28;20243;-87
2022/12/05 09:06:38;;;;;;;16.27;10.40;;;3.70;99.90;;;;;;5001918;28;20211;-87
2022/12/05 09:09:06;;;;;;;16.70;9.50;;;3.70;99.90;;;;;;5001135;28;20194;-87
2022/12/05 09:11:39;;;;;;;14.60;9.90;;;3.70;99.90;;;;;;5005024;28;20382;-87
2022/12/05 09:14:15;;;;;;;16.40;9.73;;;3.80;99.90;;;;;;5003895;28;20192;-87
2022/12/05 09:16:45;;;;;;;22.13;13.47;;;3.80;99.90;;;;;;5025096;28;20199;-87
2022/12/05 09:19:17;;;;;;;19.13;12.00;;;3.80;99.90;;;;;;4993340;28;20262;-87
2022/12/05 09:21:59;;;;;;;16.33;11.37;;;3.80;99.90;;;;;;5000930;28;20175;-87
2022/12/05 09:24:25;;;;;;;16.60;10.57;;;3.80;99.90;;;;;;5007447;28;20179;-88
2022/12/05 09:26:54;;;;;;;16.00;10.93;;;3.90;99.90;;;;;;5008427;28;20684;-87
2022/12/05 09:29:20;;;;;;;17.63;10.50;;;3.90;99.90;;;;;;5025774;28;20594;-87
2022/12/05 09:31:48;;;;;;;17.70;10.80;;;3.90;99.90;;;;;;4994038;28;20180;-87
2022/12/05 09:34:16;;;;;;;16.60;10.80;;;3.90;99.90;;;;;;5003670;28;20178;-87
2022/12/05 09:36:43;;;;;;;15.30;10.03;;;3.90;99.90;;;;;;5006038;28;20207;-88
2022/12/05 09:39:10;;;;;;;16.03;10.10;;;3.90;99.90;;;;;;5005666;28;20337;-87
2022/12/05 09:42:04;;;;;;;19.03;10.13;;;4.00;99.90;;;;;;5011478;28;20179;-87
2022/12/05 09:44:45;;;;;;;15.50;9.97;;;4.00;99.90;;;;;;5003566;28;20211;-86
2022/12/05 09:47:23;;;;;;;13.73;9.70;;;4.10;99.90;;;;;;5003150;28;20239;-87
2022/12/05 09:49:56;;;;;;;18.03;14.00;;;4.10;99.90;;;;;;4997477;28;20221;-87
2022/12/05 09:52:37;;;;;;;20.70;12.77;;;4.20;99.90;;;;;;4997138;28;20172;-87
2022/12/05 09:55:16;;;;;;;15.63;10.40;;;4.20;99.90;;;;;;5013929;28;20191;-87
2022/12/05 09:57:57;;;;;;;15.43;11.00;;;4.30;99.90;;;;;;5014426;28;20226;-87
2022/12/05 10:00:27;;;;;;;17.97;11.80;;;4.30;99.90;;;;;;5015550;28;20203;-86
2022/12/05 10:03:01;;;;;;;15.17;10.97;;;4.40;99.90;;;;;;5015470;28;20199;-86
2022/12/05 10:05:35;;;;;;;17.27;12.20;;;4.50;99.90;;;;;;4999164;28;20254;-86
2022/12/05 10:08:22;;;;;;;19.03;12.70;;;4.50;99.90;;;;;;5016491;28;20191;-87
2022/12/05 10:11:08;;;;;;;17.60;12.70;;;4.60;99.90;;;;;;5015317;28;20186;-87
2022/12/05 10:13:56;;;;;;;17.17;11.20;;;4.60;99.90;;;;;;4994632;28;20184;-87
2022/12/05 10:16:34;;;;;;;15.50;10.33;;;4.70;99.90;;;;;;5024264;28;20282;-87
2022/12/05 10:19:14;;;;;;;21.37;11.40;;;4.70;99.90;;;;;;4995351;28;20169;-87
2022/12/05 10:22:11;;;;;;;15.57;10.20;;;4.70;99.90;;;;;;5003885;28;20179;-87
2022/12/05 10:25:09;;;;;;;15.07;10.73;;;4.80;99.90;;;;;;4995448;28;20218;-87
2022/12/05 10:27:58;;;;;;;16.33;10.97;;;4.80;99.90;;;;;;4974371;28;20620;-87
2022/12/05 10:30:29;;;;;;;14.53;10.20;;;4.80;99.90;;;;;;5012090;28;20194;-87
2022/12/05 10:33:20;;;;;;;15.53;9.93;;;4.80;99.90;;;;;;5000219;28;20168;-87
2022/12/05 10:35:53;;;;;;;13.70;9.57;;;4.80;99.90;;;;;;4983119;28;20175;-87
2022/12/05 10:38:26;;;;;;;14.90;9.97;;;4.80;99.90;;;;;;4999873;28;20171;-87
2022/12/05 10:40:57;;;;;;;15.97;11.80;;;4.90;99.90;;;;;;5004277;28;20221;-87
2022/12/05 10:43:29;;;;;;;16.73;10.70;;;4.90;99.90;;;;;;4979156;28;20290;-87
2022/12/05 10:45:56;;;;;;;16.93;10.73;;;5.00;99.90;;;;;;4979038;28;20204;-86
2022/12/05 10:48:23;;;;;;;13.40;9.70;;;5.00;99.90;;;;;;5009468;28;20177;-87
2022/12/05 10:50:55;;;;;;;11.50;8.47;;;5.10;99.90;;;;;;5014458;28;20183;-87
2022/12/05 10:53:32;;;;;;;13.83;9.57;;;5.20;99.90;;;;;;4997882;28;20630;-86
2022/12/05 10:55:58;;;;;;;14.27;9.33;;;5.40;99.90;;;;;;5011388;28;20204;-86
2022/12/05 10:58:27;;;;;;;15.20;8.80;;;5.50;99.90;;;;;;5013303;28;20180;-86
2022/12/05 11:00:57;;;;;;;11.33;7.57;;;5.60;99.90;;;;;;5014229;28;20194;-86
2022/12/05 11:03:30;;;;;;;8.07;6.27;;;5.80;99.90;;;;;;5014104;28;20205;-87
2022/12/05 11:06:00;;;;;;;9.33;5.43;;;5.90;99.90;;;;;;5011980;28;20206;-87
2022/12/05 11:08:30;;;;;;;5.90;5.13;;;5.90;99.90;;;;;;4993660;28;20280;-86
2022/12/05 11:11:06;;;;;;;6.37;4.83;;;5.90;99.90;;;;;;5012063;28;20194;-86
2022/12/05 11:13:34;;;;;;;7.83;5.43;;;6.00;99.90;;;;;;5013956;28;20252;-86
2022/12/05 11:16:01;;;;;;;6.60;5.13;;;6.00;99.90;;;;;;4994465;28;20289;-87
2022/12/05 11:18:35;;;;;;;6.27;4.90;;;5.90;99.90;;;;;;4994688;28;20233;-87
2022/12/05 11:21:13;;;;;;;6.47;5.03;;;5.90;99.90;;;;;;4993679;28;20207;-87
2022/12/05 11:23:40;;;;;;;7.37;5.70;;;5.90;99.90;;;;;;4989622;28;20237;-87
2022/12/05 11:26:37;;;;;;;8.13;6.27;;;6.00;99.90;;;;;;5006181;28;20245;-87
2022/12/05 11:29:34;;;;;;;6.20;4.73;;;6.00;99.90;;;;;;4972324;28;20192;-87
2022/12/05 11:32:22;;;;;;;7.70;5.37;;;6.00;99.90;;;;;;4992621;28;20202;-87
2022/12/05 11:35:16;;;;;;;7.80;5.63;;;6.10;99.90;;;;;;4994282;28;20683;-86
2022/12/05 11:37:59;;;;;;;7.60;5.13;;;6.20;99.90;;;;;;4993792;28;20313;-86
2022/12/05 11:40:38;;;;;;;6.90;4.87;;;6.20;99.90;;;;;;4994293;28;20163;-86
2022/12/05 11:43:15;;;;;;;8.07;5.33;;;6.30;99.90;;;;;;5029903;28;20205;-87
2022/12/05 11:45:50;;;;;;;6.90;4.93;;;6.30;99.90;;;;;;5009814;28;20592;-87
2022/12/05 11:48:27;;;;;;;10.27;5.73;;;6.40;99.90;;;;;;4984136;28;20169;-87
2022/12/05 11:51:31;;;;;;;8.17;5.53;;;6.40;99.90;;;;;;4996380;28;20181;-87
2022/12/05 11:54:21;;;;;;;8.80;5.47;;;6.50;99.90;;;;;;4997015;28;20201;-86
2022/12/05 11:56:59;;;;;;;7.43;5.53;;;6.60;99.90;;;;;;5013256;28;20264;-87
2022/12/05 11:59:59;;;;;;;7.33;5.43;;;6.80;99.90;;;;;;5006701;28;20171;-87
2022/12/05 12:03:12;;;;;;;7.23;4.73;;;7.00;99.90;;;;;;5002571;28;20207;-87
2022/12/05 12:06:16;;;;;;;6.00;4.50;;;7.20;99.90;;;;;;4999945;28;20187;-87
2022/12/05 12:09:04;;;;;;;5.50;4.43;;;7.20;99.90;;;;;;4994977;28;20193;-86
2022/12/05 12:12:02;;;;;;;5.63;3.90;;;7.20;99.90;;;;;;4994921;28;20160;-86
2022/12/05 12:14:54;;;;;;;5.30;4.10;;;7.10;99.90;;;;;;5009247;28;20178;-87
2022/12/05 12:17:29;;;;;;;4.57;3.50;;;7.00;99.90;;;;;;5008582;28;20200;-86
2022/12/05 12:20:18;;;;;;;5.77;3.80;;;7.00;99.90;;;;;;5009611;28;20189;-87
2022/12/05 12:22:55;;;;;;;5.27;3.87;;;6.90;99.90;;;;;;4977486;28;20222;-87
2022/12/05 12:25:44;;;;;;;5.53;4.20;;;6.90;99.90;;;;;;5012955;28;20182;-87
2022/12/05 12:28:32;;;;;;;8.27;3.97;;;6.80;99.90;;;;;;5012568;28;20191;-86
2022/12/05 12:31:16;;;;;;;4.90;3.90;;;6.80;99.90;;;;;;4996662;28;20174;-87
2022/12/05 12:34:00;;;;;;;5.83;4.37;;;6.80;99.90;;;;;;5013041;28;20226;-87
2022/12/05 12:36:32;;;;;;;6.70;4.70;;;6.80;99.90;;;;;;4996810;28;20207;-86
2022/12/05 12:39:38;;;;;;;5.63;4.37;;;6.80;99.90;;;;;;5012912;28;20270;-87
2022/12/05 12:42:14;;;;;;;6.80;4.73;;;6.80;99.90;;;;;;5012702;28;20174;-87
2022/12/05 12:45:14;;;;;;;6.23;4.70;;;6.80;99.90;;;;;;5012570;28;20666;-86
2022/12/05 12:48:01;;;;;;;6.17;4.60;;;6.80;99.90;;;;;;4995836;28;20233;-87
2022/12/05 12:50:32;;;;;;;6.13;4.00;;;6.90;99.90;;;;;;5012767;28;20159;-86
2022/12/05 12:53:03;;;;;;;5.00;4.20;;;6.90;99.90;;;;;;5012811;28;20201;-87
2022/12/05 12:55:53;;;;;;;5.27;3.90;;;6.90;99.90;;;;;;4996154;28;20195;-86
2022/12/05 12:58:53;;;;;;;5.43;4.10;;;7.00;99.90;;;;;;5012739;28;20176;-86
2022/12/05 13:01:19;;;;;;;5.40;4.10;;;7.00;99.90;;;;;;5012370;28;20193;-87
2022/12/05 13:04:01;;;;;;;6.13;4.17;;;7.00;99.90;;;;;;4994605;28;20218;-87
2022/12/05 13:06:47;;;;;;;4.43;3.73;;;7.10;99.90;;;;;;4996229;28;20255;-87
2022/12/05 13:09:23;;;;;;;6.37;4.00;;;7.20;99.90;;;;;;5003659;28;20186;-87
2022/12/05 13:11:50;;;;;;;5.33;4.07;;;7.40;99.90;;;;;;5012436;28;20167;-87
2022/12/05 13:14:22;;;;;;;4.97;4.07;;;7.60;99.90;;;;;;5012014;28;20186;-87
2022/12/05 13:16:51;;;;;;;5.37;3.77;;;7.80;99.90;;;;;;5007895;28;20200;-87
2022/12/05 13:19:36;;;;;;;3.90;3.30;;;8.00;99.90;;;;;;5012036;28;20187;-87
2022/12/05 13:22:06;;;;;;;5.07;4.00;;;8.10;99.90;;;;;;5009416;28;20211;-87
2022/12/05 13:24:32;;;;;;;7.40;3.90;;;8.10;99.90;;;;;;4976176;28;20288;-87